Time;durP1;ratioP1;P1;durP2;ratioP2;P2;SDS_P1;SDS_P2;PMS_P1;PMS_P2;Temp;Humidity;BMP_temperature;BMP_pressure;BME280_temperature;BME280_humidity;BME280_pressure;Samples;Min_cycle;Max_cycle;Signal;HPM_P1;HPM_P2
2022/03/18 00:00:56;;;;;;;46.90;8.53;;;6.90;1.00;;;;;;5050443;28;20180;-55
2022/03/18 00:03:22;;;;;;;44.80;8.23;;;7.20;1.00;;;;;;5050602;28;20164;-55
2022/03/18 00:05:48;;;;;;;48.63;8.50;;;6.80;1.00;;;;;;5050716;28;20198;-56
2022/03/18 00:08:14;;;;;;;47.37;8.33;;;;;;;;;;5050477;28;20199;-55
2022/03/18 00:10:40;;;;;;;49.10;8.73;;;;;;;;;;5050364;28;20553;-55
2022/03/18 00:13:06;;;;;;;39.23;7.47;;;;;;;;;;5050618;28;20577;-55
2022/03/18 00:15:33;;;;;;;44.57;8.17;;;;;;;;;;5049988;28;20187;-55
2022/03/18 00:17:58;;;;;;;56.00;9.47;;;6.70;12.00;;;;;;5050442;28;20176;-55
2022/03/18 00:20:24;;;;;;;51.03;8.87;;;6.60;1.00;;;;;;5048864;28;20245;-55
2022/03/18 00:22:50;;;;;;;59.37;9.83;;;6.70;1.00;;;;;;5048964;28;20203;-55
2022/03/18 00:25:17;;;;;;;52.50;9.07;;;6.70;99.90;;;;;;5046741;28;20188;-55
2022/03/18 00:27:44;;;;;;;42.87;7.97;;;6.30;1.00;;;;;;5049162;28;20578;-55
2022/03/18 00:30:11;;;;;;;47.03;8.23;;;6.10;99.90;;;;;;5050229;28;20202;-55
2022/03/18 00:32:41;;;;;;;43.90;7.70;;;6.10;1.00;;;;;;5048560;28;20184;-55
2022/03/18 00:35:08;;;;;;;47.20;8.60;;;6.10;1.00;;;;;;5049908;28;20195;-55
2022/03/18 00:37:34;;;;;;;49.03;8.60;;;6.30;1.00;;;;;;5049951;28;20182;-55
2022/03/18 00:40:00;;;;;;;47.80;8.43;;;6.10;99.90;;;;;;5049607;28;20206;-55
2022/03/18 00:42:26;;;;;;;43.40;7.90;;;6.20;1.00;;;;;;5048770;28;20195;-55
2022/03/18 00:44:51;;;;;;;51.67;9.00;;;6.10;1.00;;;;;;5049377;28;20199;-55
2022/03/18 00:52:49;;;;;;;45.80;8.10;;;6.00;69.20;;;;;;5048468;28;20266;-55
2022/03/18 00:55:15;;;;;;;45.80;7.97;;;6.10;95.00;;;;;;5049376;28;20325;-55
2022/03/18 00:57:40;;;;;;;49.80;8.70;;;6.30;91.00;;;;;;5049832;28;20172;-55
2022/03/18 01:00:06;;;;;;;55.70;9.43;;;6.20;96.50;;;;;;5049095;28;20252;-55
2022/03/18 01:02:32;;;;;;;44.30;8.13;;;6.20;95.10;;;;;;5049322;28;20195;-55
2022/03/18 01:04:58;;;;;;;41.53;7.97;;;6.30;99.90;;;;;;5049386;28;20500;-55
2022/03/18 01:07:24;;;;;;;46.43;8.07;;;5.90;99.90;;;;;;5048372;28;20560;-55
2022/03/18 01:09:49;;;;;;;43.60;7.90;;;6.10;99.90;;;;;;5049242;28;20175;-55
2022/03/18 01:12:15;;;;;;;50.20;8.70;;;6.00;99.90;;;;;;5049200;28;20190;-55
2022/03/18 01:14:41;;;;;;;58.13;10.07;;;6.00;99.90;;;;;;5048712;28;20272;-55
2022/03/18 01:17:06;;;;;;;46.73;8.43;;;6.00;99.90;;;;;;5047832;28;20214;-55
2022/03/18 01:19:32;;;;;;;46.03;8.43;;;5.90;99.90;;;;;;5047566;28;20228;-55
2022/03/18 01:21:57;;;;;;;37.77;7.07;;;6.30;99.90;;;;;;5047915;28;20302;-55
2022/03/18 01:24:23;;;;;;;47.37;8.20;;;6.10;99.90;;;;;;5047095;28;20245;-55
2022/03/18 01:26:48;;;;;;;48.07;8.33;;;5.70;99.90;;;;;;5048996;28;20171;-55
2022/03/18 01:29:14;;;;;;;40.40;7.53;;;5.80;99.90;;;;;;5049214;28;20172;-54
2022/03/18 01:31:39;;;;;;;44.20;8.00;;;6.00;99.90;;;;;;5048944;28;20229;-55
2022/03/18 01:34:05;;;;;;;46.03;8.27;;;6.00;99.90;;;;;;5048815;28;20179;-55
2022/03/18 01:36:30;;;;;;;55.67;9.50;;;6.10;99.90;;;;;;5048967;28;20198;-55
2022/03/18 01:38:56;;;;;;;43.03;7.80;;;6.00;99.90;;;;;;5048591;28;20543;-55
2022/03/18 01:41:22;;;;;;;37.77;7.13;;;6.00;99.90;;;;;;5048777;28;20196;-55
2022/03/18 01:43:48;;;;;;;51.17;8.93;;;6.40;99.90;;;;;;5046575;28;20164;-54
2022/03/18 01:46:16;;;;;;;55.77;9.17;;;6.30;99.90;;;;;;5046202;28;20187;-55
2022/03/18 01:48:41;;;;;;;39.27;7.57;;;6.20;99.90;;;;;;5048809;28;20238;-55
2022/03/18 01:51:08;;;;;;;47.93;8.43;;;6.20;99.90;;;;;;5048779;28;20191;-55
2022/03/18 01:53:35;;;;;;;57.10;9.53;;;6.20;99.90;;;;;;5047699;28;20275;-55
2022/03/18 01:56:01;;;;;;;41.63;7.57;;;6.20;99.90;;;;;;5048154;28;20191;-55
2022/03/18 01:58:27;;;;;;;44.57;7.93;;;;;;;;;;5047080;28;20245;-55
2022/03/18 02:00:52;;;;;;;40.67;7.37;;;6.10;99.90;;;;;;5048634;28;20585;-55
2022/03/18 02:03:18;;;;;;;47.87;8.53;;;6.10;99.90;;;;;;5047687;28;20211;-55
2022/03/18 02:05:44;;;;;;;26.77;5.50;;;6.20;99.90;;;;;;5047371;28;20191;-55
2022/03/18 02:08:10;;;;;;;47.17;8.23;;;6.10;99.90;;;;;;5048631;28;20275;-55
2022/03/18 02:10:37;;;;;;;36.47;7.27;;;6.10;99.90;;;;;;5047990;28;20191;-55
2022/03/18 02:13:03;;;;;;;52.23;8.80;;;6.00;99.90;;;;;;5047958;28;20230;-55
2022/03/18 02:15:28;;;;;;;48.57;8.43;;;6.00;99.90;;;;;;5046500;28;20243;-55
2022/03/18 02:17:54;;;;;;;44.60;7.90;;;6.00;99.90;;;;;;5046142;28;20202;-55
2022/03/18 02:20:20;;;;;;;45.20;8.07;;;6.00;99.90;;;;;;5047325;28;20210;-55
2022/03/18 02:22:46;;;;;;;51.07;8.77;;;6.20;99.90;;;;;;5048180;28;20266;-55
2022/03/18 02:25:14;;;;;;;45.50;7.93;;;6.00;99.90;;;;;;5046459;28;20547;-55
2022/03/18 02:28:01;;;;;;;55.60;9.00;;;5.90;99.90;;;;;;5046530;28;20172;-55
2022/03/18 02:30:28;;;;;;;40.40;7.57;;;6.00;99.90;;;;;;5047219;28;20582;-55
2022/03/18 02:32:54;;;;;;;57.17;9.63;;;6.00;99.90;;;;;;5047649;28;20179;-55
2022/03/18 02:35:20;;;;;;;41.43;7.80;;;5.90;99.90;;;;;;5048008;28;20195;-55
2022/03/18 02:37:46;;;;;;;49.80;8.87;;;5.90;99.90;;;;;;5048181;28;20184;-55
2022/03/18 02:40:14;;;;;;;34.07;6.90;;;5.90;99.90;;;;;;5047133;28;20209;-55
2022/03/18 02:42:41;;;;;;;47.43;8.13;;;6.00;99.90;;;;;;5047859;28;20199;-55
2022/03/18 02:45:07;;;;;;;52.63;9.03;;;6.00;99.90;;;;;;5047061;28;20541;-55
2022/03/18 02:47:32;;;;;;;53.13;8.90;;;5.80;99.90;;;;;;5047751;28;20489;-55
2022/03/18 02:49:58;;;;;;;46.93;8.13;;;;;;;;;;5047283;28;20164;-55
2022/03/18 02:52:24;;;;;;;49.93;8.23;;;5.80;99.90;;;;;;5046036;28;20190;-55
2022/03/18 02:54:49;;;;;;;47.73;8.80;;;6.00;99.90;;;;;;5047549;28;20203;-55
2022/03/18 02:57:15;;;;;;;38.53;7.50;;;5.60;99.90;;;;;;5047312;28;20661;-55
2022/03/18 02:59:40;;;;;;;48.80;8.73;;;5.80;99.90;;;;;;5045170;28;20676;-55
2022/03/18 03:02:06;;;;;;;51.43;8.87;;;5.80;99.90;;;;;;5047181;28;20241;-55
2022/03/18 03:04:31;;;;;;;42.30;7.73;;;5.60;99.90;;;;;;5046884;28;20202;-55
2022/03/18 03:09:41;;;;;;;48.97;8.53;;;5.60;99.90;;;;;;5047361;28;20159;-55
2022/03/18 03:12:07;;;;;;;35.70;6.87;;;6.00;99.90;;;;;;5046921;28;20167;-55
2022/03/18 03:14:33;;;;;;;50.63;8.63;;;5.90;99.90;;;;;;5045604;28;20253;-55
2022/03/18 03:16:58;;;;;;;45.47;8.13;;;5.70;99.90;;;;;;5045741;28;20202;-55
2022/03/18 03:19:24;;;;;;;42.97;7.73;;;5.90;99.90;;;;;;5047264;28;20228;-55
2022/03/18 03:21:49;;;;;;;59.33;10.10;;;5.70;99.90;;;;;;5046281;28;20191;-55
2022/03/18 03:24:15;;;;;;;52.10;8.97;;;;;;;;;;5046659;28;20182;-55
2022/03/18 03:26:41;;;;;;;46.73;8.13;;;5.40;99.90;;;;;;5047662;28;20176;-55
2022/03/18 03:29:07;;;;;;;49.63;8.53;;;5.70;99.90;;;;;;5045726;28;20563;-55
2022/03/18 03:31:33;;;;;;;53.33;8.90;;;5.90;99.90;;;;;;5045629;28;20547;-55
2022/03/18 03:33:58;;;;;;;57.93;9.40;;;5.50;99.90;;;;;;5046802;28;20229;-55
2022/03/18 03:36:24;;;;;;;41.83;7.80;;;;;;;;;;5047433;28;20195;-55
2022/03/18 03:38:50;;;;;;;39.50;7.37;;;5.70;99.90;;;;;;5047401;28;20221;-55
2022/03/18 03:41:18;;;;;;;58.60;9.57;;;5.60;99.90;;;;;;5045381;28;20206;-55
2022/03/18 03:43:43;;;;;;;53.83;9.23;;;5.60;99.90;;;;;;5045181;28;20172;-55
2022/03/18 03:46:09;;;;;;;46.63;8.60;;;5.50;99.90;;;;;;5046373;28;20537;-55
2022/03/18 03:48:34;;;;;;;50.43;8.33;;;5.50;99.90;;;;;;5047094;28;20179;-54
2022/03/18 03:51:01;;;;;;;45.13;8.07;;;5.20;99.90;;;;;;5047351;28;20174;-55
2022/03/18 03:53:26;;;;;;;36.40;7.17;;;5.60;99.90;;;;;;5046589;28;20246;-55
2022/03/18 03:55:52;;;;;;;45.97;8.27;;;5.50;99.90;;;;;;5045886;28;20192;-55
2022/03/18 03:58:18;;;;;;;53.77;8.97;;;5.30;99.90;;;;;;5047183;28;20178;-55
2022/03/18 04:00:43;;;;;;;51.33;9.10;;;5.30;99.90;;;;;;5047383;28;20248;-55
2022/03/18 04:03:09;;;;;;;46.80;8.10;;;;;;;;;;5047284;28;20487;-55
2022/03/18 04:05:35;;;;;;;53.97;9.37;;;5.60;99.90;;;;;;5046959;28;20250;-55
2022/03/18 04:08:02;;;;;;;54.47;9.27;;;5.30;99.90;;;;;;5047279;28;20180;-55
2022/03/18 04:10:28;;;;;;;60.87;10.07;;;;;;;;;;5046755;28;20167;-55
2022/03/18 04:12:54;;;;;;;54.00;9.10;;;5.30;99.90;;;;;;5047228;28;20172;-55
2022/03/18 04:15:21;;;;;;;56.23;9.73;;;;;;;;;;5046827;28;20571;-54
2022/03/18 04:17:48;;;;;;;58.53;10.20;;;5.30;99.90;;;;;;5049546;28;20642;-55
2022/03/18 04:20:18;;;;;;;58.27;10.37;;;5.20;99.90;;;;;;5050974;28;20202;-55
2022/03/18 04:22:44;;;;;;;56.33;10.10;;;5.20;99.90;;;;;;5050544;28;20207;-55
2022/03/18 04:25:11;;;;;;;56.07;9.43;;;5.20;99.90;;;;;;5050157;28;20232;-55
2022/03/18 04:27:38;;;;;;;53.93;9.53;;;5.20;99.90;;;;;;5050407;28;20172;-55
2022/03/18 04:30:05;;;;;;;68.63;11.60;;;5.10;99.90;;;;;;5049902;28;20178;-55
2022/03/18 04:32:31;;;;;;;56.87;9.77;;;5.20;99.90;;;;;;5049069;28;20175;-55
2022/03/18 04:34:57;;;;;;;57.80;9.73;;;5.10;99.90;;;;;;5049705;28;20680;-55
2022/03/18 04:37:24;;;;;;;54.30;9.70;;;;;;;;;;5050303;28;20557;-55
2022/03/18 04:39:50;;;;;;;50.53;9.03;;;;;;;;;;5048444;28;20247;-55
2022/03/18 04:42:16;;;;;;;62.57;10.37;;;;;;;;;;5047417;28;20278;-55
2022/03/18 04:44:41;;;;;;;52.83;9.90;;;5.20;99.90;;;;;;5048658;28;20563;-55
2022/03/18 04:47:07;;;;;;;44.17;8.63;;;4.80;99.90;;;;;;5049957;28;20245;-55
2022/03/18 04:49:32;;;;;;;51.23;9.20;;;5.20;99.90;;;;;;5049981;28;20175;-55
2022/03/18 04:51:58;;;;;;;62.03;10.93;;;4.70;99.90;;;;;;5050020;28;20179;-55
2022/03/18 04:54:24;;;;;;;51.17;9.20;;;;;;;;;;5049450;28;20175;-55
2022/03/18 04:59:34;;;;;;;52.40;9.33;;;5.10;99.90;;;;;;5050094;28;20303;-55
2022/03/18 05:02:00;;;;;;;53.43;9.50;;;4.70;99.90;;;;;;5049415;28;20354;-55
2022/03/18 05:04:25;;;;;;;38.23;7.67;;;4.90;99.90;;;;;;5049833;28;20377;-55
2022/03/18 05:06:51;;;;;;;63.30;10.83;;;;;;;;;;5049370;28;20277;-55
2022/03/18 05:09:16;;;;;;;51.23;9.33;;;5.30;99.90;;;;;;5049394;28;20168;-55
2022/03/18 05:11:42;;;;;;;59.70;10.10;;;5.20;99.90;;;;;;5049653;28;20172;-55
2022/03/18 05:14:07;;;;;;;53.17;9.13;;;5.20;99.90;;;;;;5049564;28;20172;-55
2022/03/18 05:16:33;;;;;;;62.73;10.07;;;5.20;99.90;;;;;;5049399;28;20527;-55
2022/03/18 05:18:58;;;;;;;65.30;10.83;;;5.20;99.90;;;;;;5049744;28;20206;-55
2022/03/18 05:21:24;;;;;;;37.37;7.33;;;5.10;99.90;;;;;;5049375;28;20288;-55
2022/03/18 05:23:50;;;;;;;61.53;10.30;;;4.70;99.90;;;;;;5049265;28;20264;-55
2022/03/18 05:26:16;;;;;;;51.20;9.63;;;;;;;;;;5049301;28;20265;-55
2022/03/18 05:28:42;;;;;;;73.47;11.77;;;;;;;;;;5048135;28;20172;-55
2022/03/18 05:31:08;;;;;;;57.33;10.07;;;5.10;99.90;;;;;;5048065;28;20175;-55
2022/03/18 05:33:34;;;;;;;51.90;9.13;;;;;;;;;;5048845;28;20175;-55
2022/03/18 05:36:00;;;;;;;72.93;11.30;;;;;;;;;;5045492;28;20282;-55
2022/03/18 05:38:26;;;;;;;49.47;9.07;;;;;;;;;;5048924;28;20196;-55
2022/03/18 05:40:53;;;;;;;62.13;11.23;;;;;;;;;;5047922;28;20164;-56
2022/03/18 05:43:18;;;;;;;68.93;12.03;;;5.00;99.90;;;;;;5030939;28;20236;-56
2022/03/18 05:45:45;;;;;;;82.77;13.30;;;;;;;;;;5029781;28;20227;-56
2022/03/18 05:48:11;;;;;;;78.33;13.63;;;5.20;99.90;;;;;;5033931;28;20190;-56
2022/03/18 05:50:37;;;;;;;58.70;10.33;;;5.30;99.90;;;;;;5029454;28;20245;-56
2022/03/18 05:53:03;;;;;;;64.40;11.37;;;;;;;;;;5036426;28;20199;-56
2022/03/18 05:56:52;;;;;;;75.90;13.13;;;5.40;99.90;;;;;;5031406;28;20588;-56
2022/03/18 05:58:18;;;;;;;79.77;13.03;;;5.40;99.90;;;;;;5028186;28;20184;-56
2022/03/18 06:00:45;;;;;;;59.93;10.63;;;5.50;99.90;;;;;;5030661;28;20313;-56
2022/03/18 06:03:12;;;;;;;76.97;12.40;;;5.30;99.90;;;;;;5028773;28;20655;-56
2022/03/18 06:05:39;;;;;;;80.73;13.33;;;5.30;99.90;;;;;;5029299;28;20200;-56
2022/03/18 06:13:33;;;;;;;90.30;14.70;;;5.40;99.90;;;;;;5036991;28;20265;-56
2022/03/18 06:15:58;;;;;;;65.43;11.37;;;;;;;;;;5038627;28;20659;-56
2022/03/18 06:18:24;;;;;;;65.23;11.73;;;5.50;99.90;;;;;;5037297;28;20596;-56
2022/03/18 06:20:54;;;;;;;67.87;11.43;;;5.50;99.90;;;;;;5029512;28;20617;-58
2022/03/18 06:23:20;;;;;;;98.00;15.67;;;;;;;;;;5032413;28;20329;-58
2022/03/18 06:25:46;;;;;;;79.93;13.07;;;;;;;;;;5024036;28;20657;-57
2022/03/18 06:28:12;;;;;;;119.77;18.20;;;;;;;;;;5029944;28;20206;-57
2022/03/18 06:30:38;;;;;;;92.10;15.43;;;5.50;99.90;;;;;;5029111;28;20569;-58
2022/03/18 06:33:04;;;;;;;100.80;15.63;;;5.40;99.90;;;;;;5016853;28;20283;-58
2022/03/18 06:35:30;;;;;;;101.80;16.00;;;;;;;;;;5016122;28;20277;-58
2022/03/18 06:37:55;;;;;;;82.63;13.30;;;5.60;99.90;;;;;;5009267;28;20703;-57
2022/03/18 06:40:21;;;;;;;102.60;16.13;;;;;;;;;;4997607;28;20897;-57
2022/03/18 06:42:47;;;;;;;108.10;16.53;;;5.90;99.90;;;;;;5014217;28;20216;-57
2022/03/18 06:45:12;;;;;;;87.03;13.23;;;6.00;99.90;;;;;;5021546;28;20288;-57
2022/03/18 06:47:38;;;;;;;132.10;19.67;;;5.70;99.90;;;;;;5022384;28;20509;-57
2022/03/18 06:50:04;;;;;;;178.13;25.57;;;5.70;99.90;;;;;;5013035;28;20245;-57
2022/03/18 06:52:30;;;;;;;136.83;21.13;;;;;;;;;;5018025;28;20192;-57
2022/03/18 06:54:56;;;;;;;105.23;16.60;;;5.70;99.90;;;;;;5007723;28;20207;-58
2022/03/18 06:57:21;;;;;;;99.53;15.70;;;5.90;99.90;;;;;;5022356;28;20184;-57
2022/03/18 06:59:47;;;;;;;66.73;11.00;;;5.80;99.90;;;;;;5023315;28;20180;-57
2022/03/18 07:02:16;;;;;;;115.77;18.37;;;6.00;99.90;;;;;;5016630;28;20226;-57
2022/03/18 07:04:41;;;;;;;101.03;15.80;;;6.30;99.90;;;;;;5020926;28;20215;-57
2022/03/18 07:07:07;;;;;;;103.57;16.00;;;;;;;;;;5012626;28;20176;-57
2022/03/18 07:09:33;;;;;;;96.27;15.70;;;;;;;;;;5017479;28;20342;-57
2022/03/18 07:11:59;;;;;;;101.53;15.87;;;;;;;;;;5021956;28;20623;-57
2022/03/18 07:14:25;;;;;;;110.27;16.80;;;;;;;;;;5015605;28;20283;-57
2022/03/18 07:19:36;;;;;;;119.10;17.87;;;;;;;;;;5013930;28;20219;-57
2022/03/18 07:22:03;;;;;;;104.83;16.60;;;;;;;;;;5015558;28;20307;-57
2022/03/18 07:24:29;;;;;;;107.93;16.87;;;;;;;;;;5021513;28;20267;-57
2022/03/18 07:26:55;;;;;;;104.07;16.57;;;;;;;;;;5024454;28;20295;-57
2022/03/18 07:29:21;;;;;;;120.90;18.43;;;;;;;;;;5013681;28;20208;-57
2022/03/18 07:31:47;;;;;;;107.70;17.20;;;6.50;99.90;;;;;;5013591;28;20655;-57
2022/03/18 07:34:12;;;;;;;126.73;19.97;;;6.40;99.90;;;;;;5013028;28;20194;-58
2022/03/18 07:36:38;;;;;;;84.07;14.90;;;;;;;;;;5012471;28;20279;-58
2022/03/18 07:39:04;;;;;;;120.70;19.17;;;;;;;;;;5011759;28;20354;-57
2022/03/18 07:41:30;;;;;;;186.23;28.47;;;;;;;;;;5008764;28;20323;-57
2022/03/18 07:43:56;;;;;;;132.37;19.37;;;;;;;;;;5013021;28;20188;-57
2022/03/18 07:46:22;;;;;;;124.93;18.87;;;;;;;;;;5016259;28;20219;-57
2022/03/18 07:48:48;;;;;;;81.67;12.23;;;;;;;;;;5035201;28;20409;-55
2022/03/18 07:51:14;;;;;;;51.27;9.00;;;7.20;99.90;;;;;;5046663;28;20188;-54
2022/03/18 07:53:39;;;;;;;72.43;12.07;;;7.10;99.90;;;;;;5048650;28;20557;-54
2022/03/18 07:56:05;;;;;;;73.63;11.77;;;7.20;99.90;;;;;;5048001;28;20287;-55
2022/03/18 07:58:31;;;;;;;80.73;12.73;;;6.80;92.50;;;;;;5048342;28;20203;-55
2022/03/18 08:00:57;;;;;;;70.77;12.00;;;;;;;;;;5047350;28;20204;-55
2022/03/18 08:03:23;;;;;;;103.50;16.57;;;7.20;87.30;;;;;;5045088;28;20244;-55
2022/03/18 08:05:48;;;;;;;78.93;13.07;;;7.00;86.60;;;;;;5030195;28;20663;-56
2022/03/18 08:08:14;;;;;;;116.23;18.53;;;7.30;64.00;;;;;;5025201;28;20280;-58
2022/03/18 08:10:40;;;;;;;94.93;15.60;;;7.30;65.40;;;;;;5026941;28;20180;-58
2022/03/18 08:13:06;;;;;;;127.80;19.00;;;;;;;;;;5009841;28;20240;-58
2022/03/18 08:15:32;;;;;;;75.53;12.97;;;;;;;;;;5027218;28;20557;-59
2022/03/18 08:17:58;;;;;;;121.63;18.00;;;7.50;1.00;;;;;;5010611;28;20203;-58
2022/03/18 08:20:24;;;;;;;173.50;26.67;;;;;;;;;;5015669;28;20188;-59
2022/03/18 08:22:50;;;;;;;135.73;21.17;;;7.70;76.50;;;;;;5015562;28;20204;-59
2022/03/18 08:25:17;;;;;;;73.47;12.33;;;7.70;1.00;;;;;;5020821;28;20232;-57
2022/03/18 08:27:42;;;;;;;78.33;12.70;;;7.90;1.00;;;;;;5027045;28;20187;-58
2022/03/18 08:30:11;;;;;;;120.57;18.27;;;8.00;1.00;;;;;;5027113;28;20181;-57
2022/03/18 08:32:37;;;;;;;123.17;18.33;;;;;;;;;;5031777;28;20193;-57
2022/03/18 08:35:03;;;;;;;75.90;12.33;;;7.70;1.00;;;;;;5029945;28;20212;-57
2022/03/18 08:40:14;;;;;;;107.30;16.73;;;;;;;;;;5030730;28;20215;-58
2022/03/18 08:42:40;;;;;;;99.77;15.70;;;8.40;91.50;;;;;;5028031;28;20623;-57
2022/03/18 08:45:06;;;;;;;117.00;18.23;;;8.40;8.10;;;;;;5032341;28;20288;-57
2022/03/18 08:47:32;;;;;;;97.27;15.73;;;8.20;1.00;;;;;;5023894;28;20685;-57
2022/03/18 08:49:58;;;;;;;79.10;13.07;;;8.60;1.00;;;;;;5034552;28;20194;-57
2022/03/18 08:52:23;;;;;;;72.43;12.07;;;8.50;1.00;;;;;;5031484;28;20187;-58
2022/03/18 08:54:49;;;;;;;125.47;19.77;;;8.70;99.90;;;;;;5031929;28;20215;-58
2022/03/18 08:57:16;;;;;;;109.03;16.47;;;8.50;99.90;;;;;;5026355;28;20944;-57
2022/03/18 08:59:42;;;;;;;104.97;15.77;;;;;;;;;;5023954;28;20198;-58
2022/03/18 09:02:08;;;;;;;65.87;11.07;;;8.50;99.90;;;;;;5020482;28;20204;-57
2022/03/18 09:04:33;;;;;;;87.23;13.43;;;8.80;99.90;;;;;;5025563;28;20382;-59
2022/03/18 09:06:59;;;;;;;110.50;17.77;;;8.80;99.90;;;;;;5018081;28;20175;-57
2022/03/18 09:09:24;;;;;;;92.33;14.80;;;9.00;99.90;;;;;;5015673;28;20183;-57
2022/03/18 09:11:50;;;;;;;113.70;17.93;;;9.20;99.90;;;;;;5006017;28;20191;-57
2022/03/18 09:14:16;;;;;;;103.23;16.47;;;;;;;;;;5021086;28;20222;-57
2022/03/18 09:16:41;;;;;;;99.33;15.93;;;8.90;99.90;;;;;;5022734;28;20526;-56
2022/03/18 09:19:08;;;;;;;97.10;15.37;;;9.00;99.90;;;;;;5027388;28;20203;-57
2022/03/18 09:21:34;;;;;;;72.43;12.13;;;8.80;99.90;;;;;;5027383;28;20204;-57
2022/03/18 09:24:00;;;;;;;136.57;20.40;;;8.90;99.90;;;;;;5022649;28;20214;-57
2022/03/18 09:26:26;;;;;;;102.67;16.23;;;9.10;99.90;;;;;;5014274;28;20292;-57
2022/03/18 09:28:52;;;;;;;115.37;18.37;;;9.10;99.90;;;;;;5015651;28;20180;-57
2022/03/18 09:31:17;;;;;;;129.80;20.83;;;9.30;99.90;;;;;;5013484;28;20188;-57
2022/03/18 09:33:43;;;;;;;113.53;17.53;;;9.10;99.90;;;;;;5019854;28;20661;-56
2022/03/18 09:36:10;;;;;;;121.80;18.67;;;9.20;99.90;;;;;;5018946;28;20465;-57
2022/03/18 09:38:36;;;;;;;81.57;13.27;;;9.30;99.90;;;;;;5027304;28;20204;-57
2022/03/18 09:41:02;;;;;;;155.33;23.63;;;9.10;99.90;;;;;;5009928;28;20238;-57
2022/03/18 09:43:35;;;;;;;104.43;15.63;;;9.70;99.90;;;;;;5022147;28;20204;-56
2022/03/18 09:46:06;;;;;;;141.00;22.83;;;9.30;99.90;;;;;;5013148;28;20342;-57
2022/03/18 09:48:32;;;;;;;93.63;15.50;;;;;;;;;;5019156;28;20912;-57
2022/03/18 09:50:58;;;;;;;70.67;11.67;;;;;;;;;;5025881;28;20188;-55
2022/03/18 09:53:24;;;;;;;61.03;10.27;;;9.40;99.90;;;;;;5025201;28;20180;-54
2022/03/18 09:55:51;;;;;;;65.23;10.30;;;9.60;99.90;;;;;;5025748;28;20206;-54
2022/03/18 09:58:17;;;;;;;124.43;19.17;;;;;;;;;;5024281;28;20524;-57
2022/03/18 10:00:43;;;;;;;136.17;20.87;;;;;;;;;;5015469;28;20568;-57
2022/03/18 10:03:16;;;;;;;100.33;16.57;;;9.80;99.90;;;;;;5021961;28;20305;-57
2022/03/18 10:06:02;;;;;;;88.27;14.10;;;9.90;99.90;;;;;;5017163;28;20200;-56
2022/03/18 10:08:48;;;;;;;91.77;15.70;;;9.90;99.90;;;;;;5022496;28;20715;-56
2022/03/18 10:11:19;;;;;;;167.53;26.90;;;9.90;99.90;;;;;;5016828;28;20187;-57
2022/03/18 10:13:53;;;;;;;138.97;22.50;;;9.90;99.90;;;;;;5007694;28;20990;-57
2022/03/18 10:16:33;;;;;;;88.23;14.37;;;10.30;99.90;;;;;;5019748;28;20215;-57
2022/03/18 10:18:59;;;;;;;118.30;18.37;;;;;;;;;;5027812;28;20192;-57
2022/03/18 10:21:25;;;;;;;79.90;13.27;;;;;;;;;;5018942;28;20337;-57
2022/03/18 10:24:08;;;;;;;103.13;16.63;;;10.10;99.90;;;;;;5016354;28;20183;-56
2022/03/18 10:26:35;;;;;;;112.77;17.67;;;10.00;99.90;;;;;;5016486;28;20672;-56
2022/03/18 10:29:01;;;;;;;109.30;17.37;;;;;;;;;;5017252;28;20191;-56
2022/03/18 10:31:27;;;;;;;94.33;15.47;;;10.40;99.90;;;;;;5021938;28;20521;-57
2022/03/18 10:39:24;;;;;;;153.27;23.23;;;10.40;99.90;;;;;;5016784;28;20206;-56
2022/03/18 10:41:51;;;;;;;123.47;19.03;;;;;;;;;;5015919;28;20210;-57
2022/03/18 10:44:17;;;;;;;106.60;17.20;;;;;;;;;;5017369;28;20223;-57
2022/03/18 10:46:44;;;;;;;76.33;12.33;;;;;;;;;;5031202;28;20219;-57
2022/03/18 10:49:10;;;;;;;126.97;20.53;;;;;;;;;;5020847;28;20227;-57
2022/03/18 10:51:37;;;;;;;105.90;17.47;;;10.70;99.90;;;;;;5009723;28;20243;-56
2022/03/18 10:54:04;;;;;;;159.23;25.03;;;;;;;;;;5004836;28;20523;-58
2022/03/18 10:56:30;;;;;;;127.40;20.47;;;;;;;;;;5016921;28;20302;-57
2022/03/18 10:58:56;;;;;;;105.67;17.10;;;;;;;;;;5015575;28;20192;-57
2022/03/18 11:01:23;;;;;;;136.43;21.20;;;10.10;99.90;;;;;;5015550;28;20636;-57
2022/03/18 11:03:50;;;;;;;124.80;19.93;;;;;;;;;;5014781;28;20242;-57
2022/03/18 11:06:17;;;;;;;135.73;21.73;;;11.20;99.90;;;;;;5010925;28;20211;-57
2022/03/18 11:08:47;;;;;;;129.60;20.00;;;11.30;99.90;;;;;;5006661;28;20195;-57
2022/03/18 11:11:21;;;;;;;76.60;13.10;;;11.50;99.90;;;;;;5024360;28;20179;-57
2022/03/18 11:14:10;;;;;;;77.60;13.10;;;11.90;99.90;;;;;;5025997;28;20279;-57
2022/03/18 11:16:38;;;;;;;100.33;17.03;;;11.70;99.90;;;;;;5023254;28;20983;-57
2022/03/18 11:19:10;;;;;;;120.13;19.40;;;12.20;99.90;;;;;;5019066;28;20287;-57
2022/03/18 11:21:38;;;;;;;89.33;14.77;;;12.00;99.90;;;;;;5017853;28;20216;-57
2022/03/18 11:24:06;;;;;;;138.27;22.87;;;12.10;99.90;;;;;;5016111;28;20680;-58
2022/03/18 11:26:35;;;;;;;111.40;18.30;;;12.00;99.90;;;;;;5018853;28;20222;-58
2022/03/18 11:29:08;;;;;;;172.63;26.33;;;12.00;99.90;;;;;;5020810;28;20191;-58
2022/03/18 11:31:34;;;;;;;125.20;20.63;;;;;;;;;;5023203;28;20271;-57
2022/03/18 11:34:17;;;;;;;154.37;24.53;;;12.40;99.90;;;;;;5019437;28;20252;-58
2022/03/18 11:37:16;;;;;;;82.90;14.27;;;12.40;99.90;;;;;;5028434;28;20192;-57
2022/03/18 11:39:42;;;;;;;119.67;21.67;;;;;;;;;;4998150;28;20594;-58
2022/03/18 11:42:09;;;;;;;136.03;24.20;;;13.00;98.70;;;;;;5029620;28;20215;-57
2022/03/18 11:44:58;;;;;;;122.37;20.50;;;12.90;98.80;;;;;;5026216;28;20183;-57
2022/03/18 11:47:30;;;;;;;131.33;22.03;;;12.80;99.90;;;;;;5016501;28;20555;-57
2022/03/18 11:49:56;;;;;;;120.27;20.20;;;;;;;;;;5020213;28;20472;-57
2022/03/18 11:52:22;;;;;;;129.77;21.97;;;13.40;99.30;;;;;;5017335;28;20192;-57
2022/03/18 11:54:54;;;;;;;79.90;15.37;;;13.50;98.20;;;;;;5025239;28;20223;-57
2022/03/18 11:57:34;;;;;;;109.43;19.53;;;13.40;99.90;;;;;;5027935;28;20203;-57
2022/03/18 12:00:05;;;;;;;118.77;20.17;;;13.30;97.40;;;;;;5024853;28;21347;-57
2022/03/18 12:02:38;;;;;;;110.50;18.80;;;13.70;97.10;;;;;;5011309;28;20704;-57
2022/03/18 12:05:07;;;;;;;136.57;23.03;;;13.90;96.70;;;;;;5016425;28;20223;-57
2022/03/18 12:07:48;;;;;;;95.93;16.73;;;11.50;95.10;;;;;;5023004;28;20188;-57
2022/03/18 12:10:14;;;;;;;112.30;18.37;;;14.00;98.10;;;;;;5017474;28;20480;-57
2022/03/18 12:12:42;;;;;;;81.13;14.00;;;14.30;94.60;;;;;;5024655;28;20303;-58
2022/03/18 12:15:17;;;;;;;96.57;16.13;;;14.40;94.40;;;;;;5015430;28;20547;-58
2022/03/18 12:17:48;;;;;;;109.67;18.77;;;14.70;94.40;;;;;;5022340;28;20238;-57
2022/03/18 12:20:24;;;;;;;79.30;13.93;;;15.00;94.20;;;;;;5023893;28;20782;-57
2022/03/18 12:22:51;;;;;;;92.30;15.70;;;14.80;93.40;;;;;;5026697;28;20699;-57
2022/03/18 12:25:18;;;;;;;96.25;16.65;;;15.00;96.60;;;;;;5021799;28;20243;-57
2022/03/18 12:27:44;;;;;;;96.70;18.63;;;14.90;93.40;;;;;;5021531;28;20175;-58
2022/03/18 12:30:10;;;;;;;144.23;24.30;;;;;;;;;;5020514;28;22338;-57
2022/03/18 12:32:58;;;;;;;110.72;19.65;;;14.90;93.30;;;;;;5019687;28;20242;-57
2022/03/18 12:35:35;;;;;;;147.25;24.75;;;14.90;93.60;;;;;;5014456;28;20216;-57
2022/03/18 12:38:09;;;;;;;120.25;21.25;;;15.20;93.20;;;;;;5023711;28;20859;-57
2022/03/18 12:40:40;;;;;;;85.38;15.95;;;15.00;92.40;;;;;;5020416;28;20196;-57
2022/03/18 12:43:07;;;;;;;143.40;25.10;;;;;;;;;;5013063;28;20215;-58
2022/03/18 12:45:34;;;;;;;141.18;24.25;;;;;;;;;;5020569;28;20240;-58
2022/03/18 12:48:07;;;;;;;156.90;26.17;;;15.40;92.00;;;;;;5019790;28;20779;-57
2022/03/18 12:50:42;;;;;;;91.60;17.60;;;15.40;91.40;;;;;;5023650;28;20267;-57
2022/03/18 12:53:17;;;;;;;119.32;21.67;;;15.60;91.00;;;;;;5027575;28;20199;-58
2022/03/18 12:55:44;;;;;;;141.98;24.55;;;16.00;89.60;;;;;;5023990;28;20273;-58
2022/03/18 12:58:11;;;;;;;143.10;26.50;;;16.20;85.50;;;;;;5014977;28;20188;-57
2022/03/18 13:00:39;;;;;;;114.72;21.15;;;16.20;86.20;;;;;;5017209;28;20275;-59
2022/03/18 13:03:06;;;;;;;161.07;27.40;;;15.90;85.30;;;;;;5019014;28;20206;-58
2022/03/18 13:05:32;;;;;;;117.50;21.58;;;16.20;91.40;;;;;;5014500;28;20239;-57
2022/03/18 13:07:58;;;;;;;139.05;24.70;;;;;;;;;;5016315;28;20281;-58
2022/03/18 13:10:23;;;;;;;146.50;26.52;;;16.50;86.10;;;;;;5018810;28;20271;-57
2022/03/18 13:12:49;;;;;;;89.05;18.13;;;;;;;;;;5026261;28;20182;-58
2022/03/18 13:15:21;;;;;;;121.95;21.05;;;16.50;79.70;;;;;;5014186;28;20284;-58
2022/03/18 13:17:48;;;;;;;136.60;24.67;;;16.40;81.80;;;;;;5005419;28;20374;-58
2022/03/18 13:20:25;;;;;;;145.32;28.13;;;16.50;81.30;;;;;;5020586;28;20234;-58
2022/03/18 13:22:55;;;;;;;181.75;34.78;;;16.40;79.70;;;;;;5013403;28;20264;-58
2022/03/18 13:25:22;;;;;;;141.80;27.35;;;16.50;79.90;;;;;;5009233;28;20210;-57